sensor_id;sensor_type;location;lat;lon;timestamp;temperature;humidity
23283;DHT22;11810;51.178;3.878;2023-04-19T00:00:44;10.50;99.90
23283;DHT22;11810;51.178;3.878;2023-04-19T00:03:10;10.50;99.90
23283;DHT22;11810;51.178;3.878;2023-04-19T00:05:36;10.40;99.90
23283;DHT22;11810;51.178;3.878;2023-04-19T00:08:06;10.30;99.90
23283;DHT22;11810;51.178;3.878;2023-04-19T00:10:32;10.40;99.90
23283;DHT22;11810;51.178;3.878;2023-04-19T00:13:00;10.30;99.90
23283;DHT22;11810;51.178;3.878;2023-04-19T00:15:26;10.30;99.90
23283;DHT22;11810;51.178;3.878;2023-04-19T00:17:52;10.40;99.90
23283;DHT22;11810;51.178;3.878;2023-04-19T00:20:19;10.30;99.90
23283;DHT22;11810;51.178;3.878;2023-04-19T00:22:45;10.50;99.90
23283;DHT22;11810;51.178;3.878;2023-04-19T00:25:11;10.40;99.90
23283;DHT22;11810;51.178;3.878;2023-04-19T00:27:37;10.40;99.90
23283;DHT22;11810;51.178;3.878;2023-04-19T00:30:03;10.30;99.90
23283;DHT22;11810;51.178;3.878;2023-04-19T00:32:29;10.20;99.90
23283;DHT22;11810;51.178;3.878;2023-04-19T00:34:55;10.20;99.90
23283;DHT22;11810;51.178;3.878;2023-04-19T00:37:21;10.30;99.90
23283;DHT22;11810;51.178;3.878;2023-04-19T00:39:47;10.20;99.90
23283;DHT22;11810;51.178;3.878;2023-04-19T00:42:13;10.20;99.90
23283;DHT22;11810;51.178;3.878;2023-04-19T00:44:39;10.30;99.90
23283;DHT22;11810;51.178;3.878;2023-04-19T00:47:05;10.20;99.90
23283;DHT22;11810;51.178;3.878;2023-04-19T00:49:31;10.10;99.90
23283;DHT22;11810;51.178;3.878;2023-04-19T00:51:57;10.10;99.90
23283;DHT22;11810;51.178;3.878;2023-04-19T00:54:23;10.10;99.90
23283;DHT22;11810;51.178;3.878;2023-04-19T00:56:49;10.10;99.90
23283;DHT22;11810;51.178;3.878;2023-04-19T00:59:17;10.00;99.90
23283;DHT22;11810;51.178;3.878;2023-04-19T01:01:43;9.90;99.90
23283;DHT22;11810;51.178;3.878;2023-04-19T01:04:09;9.80;99.90
23283;DHT22;11810;51.178;3.878;2023-04-19T01:06:35;9.90;99.90
23283;DHT22;11810;51.178;3.878;2023-04-19T01:09:02;10.00;99.90
23283;DHT22;11810;51.178;3.878;2023-04-19T01:11:29;10.00;99.90
23283;DHT22;11810;51.178;3.878;2023-04-19T01:13:55;10.00;99.90
23283;DHT22;11810;51.178;3.878;2023-04-19T01:16:24;9.90;99.90
23283;DHT22;11810;51.178;3.878;2023-04-19T01:18:51;9.90;99.90
23283;DHT22;11810;51.178;3.878;2023-04-19T01:21:17;9.80;99.90
23283;DHT22;11810;51.178;3.878;2023-04-19T01:23:43;9.70;99.90
23283;DHT22;11810;51.178;3.878;2023-04-19T01:26:10;9.70;99.90
23283;DHT22;11810;51.178;3.878;2023-04-19T01:28:36;9.80;99.90
23283;DHT22;11810;51.178;3.878;2023-04-19T01:31:01;9.90;99.90
23283;DHT22;11810;51.178;3.878;2023-04-19T01:33:28;9.90;99.90
23283;DHT22;11810;51.178;3.878;2023-04-19T01:35:55;9.80;99.90
23283;DHT22;11810;51.178;3.878;2023-04-19T01:38:21;9.80;99.90
23283;DHT22;11810;51.178;3.878;2023-04-19T01:40:47;9.70;99.90
23283;DHT22;11810;51.178;3.878;2023-04-19T01:43:15;9.70;99.90
23283;DHT22;11810;51.178;3.878;2023-04-19T01:45:41;9.60;99.90
23283;DHT22;11810;51.178;3.878;2023-04-19T01:48:07;9.70;99.90
23283;DHT22;11810;51.178;3.878;2023-04-19T01:50:33;9.60;99.90
23283;DHT22;11810;51.178;3.878;2023-04-19T01:52:59;9.60;99.90
23283;DHT22;11810;51.178;3.878;2023-04-19T01:55:25;9.50;99.90
23283;DHT22;11810;51.178;3.878;2023-04-19T01:57:51;9.60;99.90
23283;DHT22;11810;51.178;3.878;2023-04-19T02:00:19;9.40;99.90
23283;DHT22;11810;51.178;3.878;2023-04-19T02:02:45;9.40;99.90
23283;DHT22;11810;51.178;3.878;2023-04-19T02:05:11;9.30;99.90
23283;DHT22;11810;51.178;3.878;2023-04-19T02:07:37;9.20;99.90
23283;DHT22;11810;51.178;3.878;2023-04-19T02:10:04;9.30;99.90
23283;DHT22;11810;51.178;3.878;2023-04-19T02:12:32;9.40;99.90
23283;DHT22;11810;51.178;3.878;2023-04-19T02:14:59;9.30;99.90
23283;DHT22;11810;51.178;3.878;2023-04-19T02:17:28;9.40;99.90
23283;DHT22;11810;51.178;3.878;2023-04-19T02:19:55;9.30;99.90
23283;DHT22;11810;51.178;3.878;2023-04-19T02:22:21;9.30;99.90
23283;DHT22;11810;51.178;3.878;2023-04-19T02:24:48;9.40;99.90
23283;DHT22;11810;51.178;3.878;2023-04-19T02:27:15;9.40;99.90
23283;DHT22;11810;51.178;3.878;2023-04-19T02:29:40;9.40;99.90
23283;DHT22;11810;51.178;3.878;2023-04-19T02:32:06;9.40;99.90
23283;DHT22;11810;51.178;3.878;2023-04-19T02:34:33;9.50;99.90
23283;DHT22;11810;51.178;3.878;2023-04-19T02:36:59;9.40;99.90
23283;DHT22;11810;51.178;3.878;2023-04-19T02:39:26;9.30;99.90
23283;DHT22;11810;51.178;3.878;2023-04-19T02:41:52;9.20;99.90
23283;DHT22;11810;51.178;3.878;2023-04-19T02:44:18;9.10;99.90
23283;DHT22;11810;51.178;3.878;2023-04-19T02:46:51;9.30;99.90
23283;DHT22;11810;51.178;3.878;2023-04-19T02:49:18;9.30;99.90
23283;DHT22;11810;51.178;3.878;2023-04-19T02:51:44;9.40;99.90
23283;DHT22;11810;51.178;3.878;2023-04-19T02:54:11;9.30;99.90
23283;DHT22;11810;51.178;3.878;2023-04-19T02:56:37;9.30;99.90
23283;DHT22;11810;51.178;3.878;2023-04-19T02:59:03;9.30;99.90
23283;DHT22;11810;51.178;3.878;2023-04-19T03:01:30;9.20;99.90
23283;DHT22;11810;51.178;3.878;2023-04-19T03:03:56;9.10;99.90
23283;DHT22;11810;51.178;3.878;2023-04-19T03:06:22;9.20;99.90
23283;DHT22;11810;51.178;3.878;2023-04-19T03:08:48;9.30;99.90
23283;DHT22;11810;51.178;3.878;2023-04-19T03:11:17;9.50;99.90
23283;DHT22;11810;51.178;3.878;2023-04-19T03:13:43;9.70;99.90
23283;DHT22;11810;51.178;3.878;2023-04-19T03:16:10;9.80;99.90
23283;DHT22;11810;51.178;3.878;2023-04-19T03:18:36;9.80;99.90
23283;DHT22;11810;51.178;3.878;2023-04-19T03:21:02;9.90;99.90
23283;DHT22;11810;51.178;3.878;2023-04-19T03:23:28;10.10;99.90
23283;DHT22;11810;51.178;3.878;2023-04-19T03:25:55;10.20;99.90
23283;DHT22;11810;51.178;3.878;2023-04-19T03:28:23;10.40;99.90
23283;DHT22;11810;51.178;3.878;2023-04-19T03:30:49;10.40;99.90
23283;DHT22;11810;51.178;3.878;2023-04-19T03:33:15;10.40;99.90
23283;DHT22;11810;51.178;3.878;2023-04-19T03:35:42;10.40;99.90
23283;DHT22;11810;51.178;3.878;2023-04-19T03:38:08;10.40;99.90
23283;DHT22;11810;51.178;3.878;2023-04-19T03:40:36;10.50;99.90
23283;DHT22;11810;51.178;3.878;2023-04-19T03:43:02;10.60;99.90
23283;DHT22;11810;51.178;3.878;2023-04-19T03:45:29;10.40;99.90
23283;DHT22;11810;51.178;3.878;2023-04-19T03:47:55;10.60;99.90
23283;DHT22;11810;51.178;3.878;2023-04-19T03:50:21;10.40;99.90
23283;DHT22;11810;51.178;3.878;2023-04-19T03:52:47;10.50;99.90
23283;DHT22;11810;51.178;3.878;2023-04-19T03:55:13;10.60;99.90
23283;DHT22;11810;51.178;3.878;2023-04-19T03:57:39;10.50;99.90
23283;DHT22;11810;51.178;3.878;2023-04-19T04:00:05;10.40;99.90
23283;DHT22;11810;51.178;3.878;2023-04-19T04:02:32;10.60;99.90
23283;DHT22;11810;51.178;3.878;2023-04-19T04:04:58;10.80;99.90
23283;DHT22;11810;51.178;3.878;2023-04-19T04:07:24;10.70;99.90
23283;DHT22;11810;51.178;3.878;2023-04-19T04:09:50;10.70;99.90
23283;DHT22;11810;51.178;3.878;2023-04-19T04:12:16;10.90;99.90
23283;DHT22;11810;51.178;3.878;2023-04-19T04:14:42;10.80;99.90
23283;DHT22;11810;51.178;3.878;2023-04-19T04:17:08;10.80;99.90
23283;DHT22;11810;51.178;3.878;2023-04-19T04:19:34;11.00;99.90
23283;DHT22;11810;51.178;3.878;2023-04-19T04:21:59;11.00;99.90
23283;DHT22;11810;51.178;3.878;2023-04-19T04:24:25;10.90;99.90
23283;DHT22;11810;51.178;3.878;2023-04-19T04:26:52;11.00;99.90
23283;DHT22;11810;51.178;3.878;2023-04-19T04:29:18;10.80;99.90
23283;DHT22;11810;51.178;3.878;2023-04-19T04:31:44;10.80;99.90
23283;DHT22;11810;51.178;3.878;2023-04-19T04:34:10;10.80;99.90
23283;DHT22;11810;51.178;3.878;2023-04-19T04:36:36;11.00;99.90
23283;DHT22;11810;51.178;3.878;2023-04-19T04:39:03;11.00;99.90
23283;DHT22;11810;51.178;3.878;2023-04-19T04:41:29;11.10;99.90
23283;DHT22;11810;51.178;3.878;2023-04-19T04:43:58;11.10;99.90
23283;DHT22;11810;51.178;3.878;2023-04-19T04:46:26;11.10;99.90
23283;DHT22;11810;51.178;3.878;2023-04-19T04:48:52;11.00;99.90
23283;DHT22;11810;51.178;3.878;2023-04-19T04:51:18;11.10;99.90
23283;DHT22;11810;51.178;3.878;2023-04-19T04:53:44;11.00;99.90
23283;DHT22;11810;51.178;3.878;2023-04-19T04:56:10;11.00;99.90
23283;DHT22;11810;51.178;3.878;2023-04-19T04:58:36;11.20;99.90
23283;DHT22;11810;51.178;3.878;2023-04-19T05:01:02;11.30;99.90
23283;DHT22;11810;51.178;3.878;2023-04-19T05:03:28;11.30;99.90
23283;DHT22;11810;51.178;3.878;2023-04-19T05:05:54;11.40;99.90
23283;DHT22;11810;51.178;3.878;2023-04-19T05:08:21;11.50;99.90
23283;DHT22;11810;51.178;3.878;2023-04-19T05:10:47;11.60;99.90
23283;DHT22;11810;51.178;3.878;2023-04-19T05:13:12;11.60;99.90
23283;DHT22;11810;51.178;3.878;2023-04-19T05:15:38;11.80;99.90
23283;DHT22;11810;51.178;3.878;2023-04-19T05:18:05;12.00;99.90
23283;DHT22;11810;51.178;3.878;2023-04-19T05:20:31;12.20;99.90
23283;DHT22;11810;51.178;3.878;2023-04-19T05:22:59;12.30;99.90
23283;DHT22;11810;51.178;3.878;2023-04-19T05:25:26;12.20;99.90
23283;DHT22;11810;51.178;3.878;2023-04-19T05:27:52;12.30;99.90
23283;DHT22;11810;51.178;3.878;2023-04-19T05:30:18;12.60;99.90
23283;DHT22;11810;51.178;3.878;2023-04-19T05:32:44;12.70;99.90
23283;DHT22;11810;51.178;3.878;2023-04-19T05:35:10;13.00;99.90
23283;DHT22;11810;51.178;3.878;2023-04-19T05:37:37;13.10;99.90
23283;DHT22;11810;51.178;3.878;2023-04-19T05:40:04;13.40;99.90
23283;DHT22;11810;51.178;3.878;2023-04-19T05:42:35;13.60;99.90
23283;DHT22;11810;51.178;3.878;2023-04-19T05:45:01;13.80;99.90
23283;DHT22;11810;51.178;3.878;2023-04-19T05:47:27;13.90;99.90
23283;DHT22;11810;51.178;3.878;2023-04-19T05:49:53;13.80;99.90
23283;DHT22;11810;51.178;3.878;2023-04-19T05:52:19;13.70;99.90
23283;DHT22;11810;51.178;3.878;2023-04-19T05:54:44;13.70;99.90
23283;DHT22;11810;51.178;3.878;2023-04-19T05:57:10;13.70;99.90
23283;DHT22;11810;51.178;3.878;2023-04-19T05:59:36;13.90;99.90
23283;DHT22;11810;51.178;3.878;2023-04-19T06:02:03;14.20;99.90
23283;DHT22;11810;51.178;3.878;2023-04-19T06:04:29;14.20;99.90
23283;DHT22;11810;51.178;3.878;2023-04-19T06:06:55;14.00;99.90
23283;DHT22;11810;51.178;3.878;2023-04-19T06:09:21;14.10;99.90
23283;DHT22;11810;51.178;3.878;2023-04-19T06:11:47;14.20;99.90
23283;DHT22;11810;51.178;3.878;2023-04-19T06:14:13;14.50;99.90
23283;DHT22;11810;51.178;3.878;2023-04-19T06:16:39;14.30;99.90
23283;DHT22;11810;51.178;3.878;2023-04-19T06:19:05;14.20;99.90
23283;DHT22;11810;51.178;3.878;2023-04-19T06:21:33;13.80;99.90
23283;DHT22;11810;51.178;3.878;2023-04-19T06:23:59;13.80;99.90
23283;DHT22;11810;51.178;3.878;2023-04-19T06:26:25;14.00;99.90
23283;DHT22;11810;51.178;3.878;2023-04-19T06:28:51;13.70;99.90
23283;DHT22;11810;51.178;3.878;2023-04-19T06:31:17;13.30;99.90
23283;DHT22;11810;51.178;3.878;2023-04-19T06:33:43;13.10;99.90
23283;DHT22;11810;51.178;3.878;2023-04-19T06:36:09;13.00;99.90
23283;DHT22;11810;51.178;3.878;2023-04-19T06:38:35;12.90;99.90
23283;DHT22;11810;51.178;3.878;2023-04-19T06:41:03;12.80;99.90
23283;DHT22;11810;51.178;3.878;2023-04-19T06:43:29;12.90;99.90
23283;DHT22;11810;51.178;3.878;2023-04-19T06:46:02;13.00;99.90
23283;DHT22;11810;51.178;3.878;2023-04-19T06:48:29;13.30;99.90
23283;DHT22;11810;51.178;3.878;2023-04-19T06:50:55;13.50;99.90
23283;DHT22;11810;51.178;3.878;2023-04-19T06:53:22;13.40;99.90
23283;DHT22;11810;51.178;3.878;2023-04-19T06:55:48;13.50;99.90
23283;DHT22;11810;51.178;3.878;2023-04-19T06:58:14;13.50;99.90
23283;DHT22;11810;51.178;3.878;2023-04-19T07:00:40;13.50;99.90
23283;DHT22;11810;51.178;3.878;2023-04-19T07:03:06;13.50;99.90
23283;DHT22;11810;51.178;3.878;2023-04-19T07:05:32;13.50;99.90
23283;DHT22;11810;51.178;3.878;2023-04-19T07:07:57;13.90;99.90
23283;DHT22;11810;51.178;3.878;2023-04-19T07:10:23;14.60;99.90
23283;DHT22;11810;51.178;3.878;2023-04-19T07:12:50;14.80;99.90
23283;DHT22;11810;51.178;3.878;2023-04-19T07:15:16;15.80;99.90
23283;DHT22;11810;51.178;3.878;2023-04-19T07:17:42;16.60;99.90
23283;DHT22;11810;51.178;3.878;2023-04-19T07:20:08;17.10;99.90
23283;DHT22;11810;51.178;3.878;2023-04-19T07:22:34;17.70;99.90
23283;DHT22;11810;51.178;3.878;2023-04-19T07:25:00;18.20;99.90
23283;DHT22;11810;51.178;3.878;2023-04-19T07:27:26;18.50;99.90
23283;DHT22;11810;51.178;3.878;2023-04-19T07:29:52;18.00;99.90
23283;DHT22;11810;51.178;3.878;2023-04-19T07:32:18;18.40;99.90
23283;DHT22;11810;51.178;3.878;2023-04-19T07:34:44;18.90;99.90
23283;DHT22;11810;51.178;3.878;2023-04-19T07:37:10;19.40;99.90
23283;DHT22;11810;51.178;3.878;2023-04-19T07:39:37;19.60;99.90
23283;DHT22;11810;51.178;3.878;2023-04-19T07:42:03;20.20;99.90
23283;DHT22;11810;51.178;3.878;2023-04-19T07:44:30;20.00;99.90
23283;DHT22;11810;51.178;3.878;2023-04-19T07:46:56;20.10;99.90
23283;DHT22;11810;51.178;3.878;2023-04-19T07:49:22;20.30;99.90
23283;DHT22;11810;51.178;3.878;2023-04-19T07:51:48;20.10;99.90
23283;DHT22;11810;51.178;3.878;2023-04-19T07:54:14;20.30;99.90
23283;DHT22;11810;51.178;3.878;2023-04-19T07:56:45;20.40;99.90
23283;DHT22;11810;51.178;3.878;2023-04-19T07:59:11;20.80;99.90
23283;DHT22;11810;51.178;3.878;2023-04-19T08:01:37;21.00;99.90
23283;DHT22;11810;51.178;3.878;2023-04-19T08:04:03;21.30;99.90
23283;DHT22;11810;51.178;3.878;2023-04-19T08:06:29;21.20;99.90
23283;DHT22;11810;51.178;3.878;2023-04-19T08:08:55;21.70;99.90
23283;DHT22;11810;51.178;3.878;2023-04-19T08:11:21;21.40;99.90
23283;DHT22;11810;51.178;3.878;2023-04-19T08:13:48;21.20;99.90
23283;DHT22;11810;51.178;3.878;2023-04-19T08:16:13;21.30;99.90
23283;DHT22;11810;51.178;3.878;2023-04-19T08:18:40;21.70;99.90
23283;DHT22;11810;51.178;3.878;2023-04-19T08:21:06;21.40;99.90
23283;DHT22;11810;51.178;3.878;2023-04-19T08:23:32;21.20;99.90
23283;DHT22;11810;51.178;3.878;2023-04-19T08:25:58;21.40;99.90
23283;DHT22;11810;51.178;3.878;2023-04-19T08:28:24;22.00;99.90
23283;DHT22;11810;51.178;3.878;2023-04-19T08:30:49;22.30;99.90
23283;DHT22;11810;51.178;3.878;2023-04-19T08:33:15;22.10;99.90
23283;DHT22;11810;51.178;3.878;2023-04-19T08:35:42;22.00;99.90
23283;DHT22;11810;51.178;3.878;2023-04-19T08:38:10;22.00;99.90
23283;DHT22;11810;51.178;3.878;2023-04-19T08:40:42;21.90;99.90
23283;DHT22;11810;51.178;3.878;2023-04-19T08:43:10;22.30;99.90
23283;DHT22;11810;51.178;3.878;2023-04-19T08:45:36;22.70;99.90
23283;DHT22;11810;51.178;3.878;2023-04-19T08:48:04;22.70;99.90
23283;DHT22;11810;51.178;3.878;2023-04-19T08:50:31;23.00;99.90
23283;DHT22;11810;51.178;3.878;2023-04-19T08:52:59;23.40;99.90
23283;DHT22;11810;51.178;3.878;2023-04-19T08:55:28;23.50;99.90
23283;DHT22;11810;51.178;3.878;2023-04-19T08:57:55;23.10;99.90
23283;DHT22;11810;51.178;3.878;2023-04-19T09:00:21;23.40;99.90
23283;DHT22;11810;51.178;3.878;2023-04-19T09:02:49;23.40;99.90
23283;DHT22;11810;51.178;3.878;2023-04-19T09:05:17;22.90;99.90
23283;DHT22;11810;51.178;3.878;2023-04-19T09:07:44;23.10;99.90
23283;DHT22;11810;51.178;3.878;2023-04-19T09:10:12;22.80;99.90
23283;DHT22;11810;51.178;3.878;2023-04-19T09:12:39;22.70;99.90
23283;DHT22;11810;51.178;3.878;2023-04-19T09:15:06;23.40;99.90
23283;DHT22;11810;51.178;3.878;2023-04-19T09:17:35;24.10;99.90
23283;DHT22;11810;51.178;3.878;2023-04-19T09:20:01;24.30;99.90
23283;DHT22;11810;51.178;3.878;2023-04-19T09:22:29;24.40;99.90
23283;DHT22;11810;51.178;3.878;2023-04-19T09:24:55;24.90;99.90
23283;DHT22;11810;51.178;3.878;2023-04-19T09:27:31;24.70;99.90
23283;DHT22;11810;51.178;3.878;2023-04-19T09:29:59;24.70;99.90
23283;DHT22;11810;51.178;3.878;2023-04-19T09:32:26;24.80;99.90
23283;DHT22;11810;51.178;3.878;2023-04-19T09:34:55;24.70;99.90
23283;DHT22;11810;51.178;3.878;2023-04-19T09:37:22;25.50;99.90
23283;DHT22;11810;51.178;3.878;2023-04-19T09:39:48;25.90;99.90
23283;DHT22;11810;51.178;3.878;2023-04-19T09:42:14;26.00;99.90
23283;DHT22;11810;51.178;3.878;2023-04-19T09:44:45;26.00;99.90
23283;DHT22;11810;51.178;3.878;2023-04-19T09:47:26;25.40;99.90
23283;DHT22;11810;51.178;3.878;2023-04-19T09:50:05;25.40;99.90
23283;DHT22;11810;51.178;3.878;2023-04-19T09:52:32;25.20;99.90
23283;DHT22;11810;51.178;3.878;2023-04-19T09:55:03;25.60;99.90
23283;DHT22;11810;51.178;3.878;2023-04-19T09:57:31;25.70;99.90
23283;DHT22;11810;51.178;3.878;2023-04-19T10:00:01;25.80;99.90
23283;DHT22;11810;51.178;3.878;2023-04-19T10:02:31;26.20;99.90
23283;DHT22;11810;51.178;3.878;2023-04-19T10:04:58;26.40;99.90
23283;DHT22;11810;51.178;3.878;2023-04-19T10:07:25;26.50;99.90
23283;DHT22;11810;51.178;3.878;2023-04-19T10:09:54;26.80;99.90
23283;DHT22;11810;51.178;3.878;2023-04-19T10:12:23;26.70;99.90
23283;DHT22;11810;51.178;3.878;2023-04-19T10:14:50;27.50;99.90
23283;DHT22;11810;51.178;3.878;2023-04-19T10:17:17;27.10;99.90
23283;DHT22;11810;51.178;3.878;2023-04-19T10:19:44;27.20;99.90
23283;DHT22;11810;51.178;3.878;2023-04-19T10:22:11;26.50;99.90
23283;DHT22;11810;51.178;3.878;2023-04-19T10:24:38;26.50;99.90
23283;DHT22;11810;51.178;3.878;2023-04-19T10:27:11;26.90;99.90
23283;DHT22;11810;51.178;3.878;2023-04-19T10:29:57;27.50;99.90
23283;DHT22;11810;51.178;3.878;2023-04-19T10:32:27;27.70;99.90
23283;DHT22;11810;51.178;3.878;2023-04-19T10:34:53;26.80;99.90
23283;DHT22;11810;51.178;3.878;2023-04-19T10:37:24;26.50;99.90
23283;DHT22;11810;51.178;3.878;2023-04-19T10:39:51;26.70;99.90
23283;DHT22;11810;51.178;3.878;2023-04-19T10:42:17;26.50;99.90
23283;DHT22;11810;51.178;3.878;2023-04-19T10:45:30;26.90;99.90
23283;DHT22;11810;51.178;3.878;2023-04-19T10:47:56;26.20;99.70
23283;DHT22;11810;51.178;3.878;2023-04-19T10:50:23;25.70;99.90
23283;DHT22;11810;51.178;3.878;2023-04-19T10:52:49;26.10;99.90
23283;DHT22;11810;51.178;3.878;2023-04-19T10:55:17;26.60;99.90
23283;DHT22;11810;51.178;3.878;2023-04-19T10:58:03;26.40;98.50
23283;DHT22;11810;51.178;3.878;2023-04-19T11:00:30;25.50;99.90
23283;DHT22;11810;51.178;3.878;2023-04-19T11:06:22;25.50;99.90
23283;DHT22;11810;51.178;3.878;2023-04-19T11:08:52;24.90;99.90
23283;DHT22;11810;51.178;3.878;2023-04-19T11:11:19;25.40;99.90
23283;DHT22;11810;51.178;3.878;2023-04-19T11:13:49;25.50;99.90
23283;DHT22;11810;51.178;3.878;2023-04-19T11:16:15;25.10;99.80
23283;DHT22;11810;51.178;3.878;2023-04-19T11:18:41;25.50;99.90
23283;DHT22;11810;51.178;3.878;2023-04-19T11:21:12;26.00;99.80
23283;DHT22;11810;51.178;3.878;2023-04-19T11:23:41;26.90;99.70
23283;DHT22;11810;51.178;3.878;2023-04-19T11:26:10;27.10;98.50
23283;DHT22;11810;51.178;3.878;2023-04-19T11:28:37;26.30;98.90
23283;DHT22;11810;51.178;3.878;2023-04-19T11:31:03;25.90;97.70
23283;DHT22;11810;51.178;3.878;2023-04-19T11:33:33;25.50;99.70
23283;DHT22;11810;51.178;3.878;2023-04-19T11:35:59;25.90;99.90
23283;DHT22;11810;51.178;3.878;2023-04-19T11:38:29;26.30;98.10
23283;DHT22;11810;51.178;3.878;2023-04-19T11:41:02;26.00;98.30
23283;DHT22;11810;51.178;3.878;2023-04-19T11:43:35;26.00;95.70
23283;DHT22;11810;51.178;3.878;2023-04-19T11:46:09;26.10;95.70
23283;DHT22;11810;51.178;3.878;2023-04-19T11:48:35;25.70;96.10
23283;DHT22;11810;51.178;3.878;2023-04-19T11:51:02;25.90;94.50
23283;DHT22;11810;51.178;3.878;2023-04-19T11:53:30;25.50;94.30
23283;DHT22;11810;51.178;3.878;2023-04-19T11:56:06;25.50;94.60
23283;DHT22;11810;51.178;3.878;2023-04-19T11:58:36;25.90;94.60
23283;DHT22;11810;51.178;3.878;2023-04-19T12:01:05;25.60;93.80
23283;DHT22;11810;51.178;3.878;2023-04-19T12:06:13;25.80;93.50
23283;DHT22;11810;51.178;3.878;2023-04-19T12:08:45;25.60;92.70
23283;DHT22;11810;51.178;3.878;2023-04-19T12:11:13;25.80;91.90
23283;DHT22;11810;51.178;3.878;2023-04-19T12:13:39;25.70;92.00
23283;DHT22;11810;51.178;3.878;2023-04-19T12:16:06;25.80;91.20
23283;DHT22;11810;51.178;3.878;2023-04-19T12:18:46;25.40;87.30
23283;DHT22;11810;51.178;3.878;2023-04-19T12:21:29;25.10;88.00
23283;DHT22;11810;51.178;3.878;2023-04-19T12:23:58;25.40;90.10
23283;DHT22;11810;51.178;3.878;2023-04-19T12:26:27;25.80;90.20
23283;DHT22;11810;51.178;3.878;2023-04-19T12:28:54;25.80;84.00
23283;DHT22;11810;51.178;3.878;2023-04-19T12:31:21;25.20;81.30
23283;DHT22;11810;51.178;3.878;2023-04-19T12:33:47;24.50;83.40
23283;DHT22;11810;51.178;3.878;2023-04-19T12:36:13;24.30;84.70
23283;DHT22;11810;51.178;3.878;2023-04-19T12:38:40;24.60;84.60
23283;DHT22;11810;51.178;3.878;2023-04-19T12:41:05;24.90;86.50
23283;DHT22;11810;51.178;3.878;2023-04-19T12:43:31;25.10;87.30
23283;DHT22;11810;51.178;3.878;2023-04-19T12:45:58;25.10;87.00
23283;DHT22;11810;51.178;3.878;2023-04-19T12:48:25;25.20;85.90
23283;DHT22;11810;51.178;3.878;2023-04-19T12:50:51;24.80;84.10
23283;DHT22;11810;51.178;3.878;2023-04-19T12:53:17;24.70;85.80
23283;DHT22;11810;51.178;3.878;2023-04-19T12:55:43;24.60;84.10
23283;DHT22;11810;51.178;3.878;2023-04-19T12:58:14;24.70;81.60
23283;DHT22;11810;51.178;3.878;2023-04-19T13:00:40;24.90;83.90
23283;DHT22;11810;51.178;3.878;2023-04-19T13:03:06;24.80;79.30
23283;DHT22;11810;51.178;3.878;2023-04-19T13:05:32;24.60;82.30
23283;DHT22;11810;51.178;3.878;2023-04-19T13:07:58;24.50;82.50
23283;DHT22;11810;51.178;3.878;2023-04-19T13:10:25;24.30;78.40
23283;DHT22;11810;51.178;3.878;2023-04-19T13:12:51;23.70;77.90
23283;DHT22;11810;51.178;3.878;2023-04-19T13:15:17;23.50;78.70
23283;DHT22;11810;51.178;3.878;2023-04-19T13:17:43;23.40;80.30
23283;DHT22;11810;51.178;3.878;2023-04-19T13:20:09;23.20;79.70
23283;DHT22;11810;51.178;3.878;2023-04-19T13:22:35;22.90;76.80
23283;DHT22;11810;51.178;3.878;2023-04-19T13:25:01;22.50;77.50
23283;DHT22;11810;51.178;3.878;2023-04-19T13:27:27;22.10;75.90
23283;DHT22;11810;51.178;3.878;2023-04-19T13:29:54;22.20;78.30
23283;DHT22;11810;51.178;3.878;2023-04-19T13:32:21;22.10;74.00
23283;DHT22;11810;51.178;3.878;2023-04-19T13:34:47;22.10;75.40
23283;DHT22;11810;51.178;3.878;2023-04-19T13:37:13;21.90;74.00
23283;DHT22;11810;51.178;3.878;2023-04-19T13:39:39;21.90;75.70
23283;DHT22;11810;51.178;3.878;2023-04-19T13:42:05;21.70;76.40
23283;DHT22;11810;51.178;3.878;2023-04-19T13:44:31;21.80;76.50
23283;DHT22;11810;51.178;3.878;2023-04-19T13:46:57;21.50;75.30
23283;DHT22;11810;51.178;3.878;2023-04-19T13:49:23;21.20;75.20
23283;DHT22;11810;51.178;3.878;2023-04-19T13:51:49;21.20;75.70
23283;DHT22;11810;51.178;3.878;2023-04-19T13:54:16;21.50;78.00
23283;DHT22;11810;51.178;3.878;2023-04-19T13:56:42;21.10;76.10
23283;DHT22;11810;51.178;3.878;2023-04-19T13:59:08;21.00;77.30
23283;DHT22;11810;51.178;3.878;2023-04-19T14:01:35;20.90;78.80
23283;DHT22;11810;51.178;3.878;2023-04-19T14:04:01;20.70;79.10
23283;DHT22;11810;51.178;3.878;2023-04-19T14:06:27;20.90;80.40
23283;DHT22;11810;51.178;3.878;2023-04-19T14:08:53;21.10;72.90
23283;DHT22;11810;51.178;3.878;2023-04-19T14:11:19;20.70;71.30
23283;DHT22;11810;51.178;3.878;2023-04-19T14:13:46;20.50;72.00
23283;DHT22;11810;51.178;3.878;2023-04-19T14:16:13;20.80;73.10
23283;DHT22;11810;51.178;3.878;2023-04-19T14:18:39;20.90;74.00
23283;DHT22;11810;51.178;3.878;2023-04-19T14:21:05;21.20;75.70
23283;DHT22;11810;51.178;3.878;2023-04-19T14:23:32;21.50;76.80
23283;DHT22;11810;51.178;3.878;2023-04-19T14:25:58;21.40;76.90
23283;DHT22;11810;51.178;3.878;2023-04-19T14:28:23;21.40;75.90
23283;DHT22;11810;51.178;3.878;2023-04-19T14:30:49;21.60;75.20
23283;DHT22;11810;51.178;3.878;2023-04-19T14:33:16;21.30;76.10
23283;DHT22;11810;51.178;3.878;2023-04-19T14:35:41;21.50;73.60
23283;DHT22;11810;51.178;3.878;2023-04-19T14:38:08;21.50;71.80
23283;DHT22;11810;51.178;3.878;2023-04-19T14:40:34;21.50;74.20
23283;DHT22;11810;51.178;3.878;2023-04-19T14:42:59;21.30;76.30
23283;DHT22;11810;51.178;3.878;2023-04-19T14:45:25;21.70;74.90
23283;DHT22;11810;51.178;3.878;2023-04-19T14:47:52;21.70;75.30
23283;DHT22;11810;51.178;3.878;2023-04-19T14:50:18;21.60;73.60
23283;DHT22;11810;51.178;3.878;2023-04-19T14:52:44;21.50;74.00
23283;DHT22;11810;51.178;3.878;2023-04-19T14:55:10;21.80;74.10
23283;DHT22;11810;51.178;3.878;2023-04-19T14:57:36;21.20;72.40
23283;DHT22;11810;51.178;3.878;2023-04-19T15:00:02;20.90;73.10
23283;DHT22;11810;51.178;3.878;2023-04-19T15:02:29;20.70;72.30
23283;DHT22;11810;51.178;3.878;2023-04-19T15:04:55;20.80;74.40
23283;DHT22;11810;51.178;3.878;2023-04-19T15:07:21;20.90;75.50
23283;DHT22;11810;51.178;3.878;2023-04-19T15:09:47;21.00;77.10
23283;DHT22;11810;51.178;3.878;2023-04-19T15:12:13;20.90;72.80
23283;DHT22;11810;51.178;3.878;2023-04-19T15:14:40;20.70;74.70
23283;DHT22;11810;51.178;3.878;2023-04-19T15:17:07;20.50;74.40
23283;DHT22;11810;51.178;3.878;2023-04-19T15:19:32;20.20;73.60
23283;DHT22;11810;51.178;3.878;2023-04-19T15:21:58;20.10;73.50
23283;DHT22;11810;51.178;3.878;2023-04-19T15:24:25;19.80;72.30
23283;DHT22;11810;51.178;3.878;2023-04-19T15:26:50;19.50;72.50
23283;DHT22;11810;51.178;3.878;2023-04-19T15:29:16;19.50;72.90
23283;DHT22;11810;51.178;3.878;2023-04-19T15:31:42;19.20;73.10
23283;DHT22;11810;51.178;3.878;2023-04-19T15:34:08;19.60;74.10
23283;DHT22;11810;51.178;3.878;2023-04-19T15:36:34;19.90;73.80